Airfield :
LOGIN :

Register | Disclaimer

   EN    FR    IT 

 










Legend :    VFR   Marginal VFR   IFR   Intensive IFR   Very Intensive IFR
Visi :
Ceiling :
>= 8 km
>= 3000ft
5 to 8 km
1000 to 3000 ft
1500m to 5 km
500 to 1000 ft
800 to 1500m
200 to 500 ft
< 800m
< 200 ft
Symbols :   Thunderstorms  Fog  Heavy snow  Heavy precipitations  Wind > 20 kt
SIGMETs :     Misc.  Thunderstorms  Icing  Turbulence  Mountain Waves  Volcanic Ashes






- Airport Elevation : 364 ft


LFAQ - Albert Bray

CURRENT METAR :
  • 111200Z AUTO 01004KT 290V090 CAVOK 33/17 Q1014 TEMPO VRB20G35KT 3000 TSRA BKN070CB

EXPIRED METARs :
  • 111130Z AUTO 02004KT 020V190 CAVOK 33/16 Q1015 TEMPO VRB20G35KT 3000 TSRA BKN070CB
  • 111100Z AUTO VRB04KT CAVOK 32/17 Q1015 TEMPO VRB20G35KT 3000 TSRA BKN070CB
  • 111030Z AUTO 09005KT 010V150 CAVOK 32/17 Q1015 TEMPO VRB20G35KT 3000 TSRA BKN070CB
  • 111000Z AUTO 07005KT 320V110 CAVOK 32/17 Q1014 TEMPO SCT070CB
  • 110930Z AUTO 03005KT 340V070 CAVOK 31/17 Q1015 TEMPO SCT070CB

TAF TAF LFAQ
Valid from the 11 at 12:00 until the 11 at 21:00 UTC


111100Z 1112/1121 VRB02KT CAVOK
TEMPO 1112/1121 SCT070CB
PROB30
TEMPO 1112/1121 VRB20G35KT 3000 TSRA BKN070CB



MET'MAP, your aeronautical weather chart ! - Copyright ORBIFLY December 2007 - Disclaimer

ORBIFLY MET'MAP TEAM :

Programming & Development : Alexandra Zaïnal
Concept & original design : Baudouin d'Aumeries
Assistance for programming : Marc-Olivier Méhu
Technical & hardware support : Manuel Goepfert

Contact : metmap@orbifly.com




SOURCES & CREDITS :

   NOAA